createdAt,value
2022-09-21T00:01:52.634Z,6.73
2022-09-21T00:04:19.783Z,6.57
2022-09-21T00:06:46.913Z,6.40
2022-09-21T00:09:14.018Z,6.20
2022-09-21T00:11:41.039Z,6.40
2022-09-21T00:14:10.960Z,5.93
2022-09-21T00:16:38.224Z,6.00
2022-09-21T00:19:06.546Z,6.00
2022-09-21T00:21:34.271Z,7.15
2022-09-21T00:24:02.549Z,6.17
2022-09-21T00:26:30.007Z,6.40
2022-09-21T00:28:58.308Z,6.53
2022-09-21T00:31:25.966Z,6.27
2022-09-21T00:33:53.373Z,6.10
2022-09-21T00:36:21.952Z,6.27
2022-09-21T00:38:52.757Z,6.30
2022-09-21T00:41:19.832Z,6.33
2022-09-21T00:43:48.535Z,7.27
2022-09-21T00:46:31.340Z,8.10
2022-09-21T00:48:58.865Z,8.37
2022-09-21T00:51:26.203Z,10.70
2022-09-21T00:53:55.255Z,9.93
2022-09-21T00:56:23.069Z,9.53
2022-09-21T00:58:51.720Z,8.03
2022-09-21T01:01:18.994Z,7.20
2022-09-21T01:03:50.966Z,7.47
2022-09-21T01:06:19.297Z,7.97
2022-09-21T01:08:47.922Z,7.57
2022-09-21T01:11:18.129Z,7.47
2022-09-21T01:13:47.829Z,6.30
2022-09-21T01:16:25.746Z,6.87
2022-09-21T01:19:11.523Z,6.80
2022-09-21T01:21:45.534Z,7.20
2022-09-21T01:24:12.479Z,6.60
2022-09-21T01:26:39.450Z,6.90
2022-09-21T01:29:25.247Z,8.27
2022-09-21T01:31:56.578Z,6.67
2022-09-21T01:34:31.008Z,7.07
2022-09-21T01:36:59.730Z,8.57
2022-09-21T01:39:27.553Z,6.97
2022-09-21T01:41:55.401Z,7.33
2022-09-21T01:44:24.140Z,7.07
2022-09-21T01:46:51.745Z,7.00
2022-09-21T01:49:22.072Z,6.93
2022-09-21T01:51:52.385Z,7.40
2022-09-21T01:54:22.842Z,7.17
2022-09-21T01:56:55.171Z,7.67
2022-09-21T01:59:34.999Z,6.60
2022-09-21T02:02:05.513Z,7.00
2022-09-21T02:04:35.086Z,7.07
2022-09-21T02:07:02.448Z,6.90
2022-09-21T02:09:29.615Z,6.87
2022-09-21T02:11:58.332Z,6.50
2022-09-21T02:14:26.182Z,6.63
2022-09-21T02:17:02.178Z,5.60
2022-09-21T02:19:48.040Z,6.13
2022-09-21T02:22:15.009Z,5.43
2022-09-21T02:24:45.051Z,6.27
2022-09-21T02:27:18.254Z,5.37
2022-09-21T02:29:51.469Z,5.40
2022-09-21T02:32:33.409Z,4.97
2022-09-21T02:35:03.785Z,5.30
2022-09-21T02:37:55.934Z,5.37
2022-09-21T02:40:36.003Z,5.10
2022-09-21T02:43:06.729Z,5.53
2022-09-21T02:45:35.916Z,5.40
2022-09-21T02:48:08.594Z,5.47
2022-09-21T02:50:54.351Z,6.45
2022-09-21T02:53:26.491Z,5.80
2022-09-21T02:55:56.597Z,5.27
2022-09-21T02:58:26.064Z,5.47
2022-09-21T03:00:53.446Z,5.10
2022-09-21T03:03:22.282Z,4.90
2022-09-21T03:05:50.198Z,5.20
2022-09-21T03:08:17.544Z,5.73
2022-09-21T03:10:44.585Z,5.20
2022-09-21T03:13:11.766Z,6.07
2022-09-21T03:15:42.194Z,5.53
2022-09-21T03:18:11.205Z,5.43
2022-09-21T03:20:39.050Z,5.60
2022-09-21T03:23:06.249Z,5.53
2022-09-21T03:25:33.658Z,7.20
2022-09-21T03:28:01.286Z,7.30
2022-09-21T03:30:29.209Z,5.80
2022-09-21T03:32:56.334Z,6.27
2022-09-21T03:35:25.236Z,5.93
2022-09-21T03:37:52.243Z,5.90
2022-09-21T03:40:20.051Z,6.07
2022-09-21T03:42:47.078Z,5.70
2022-09-21T03:45:14.107Z,5.83
2022-09-21T03:47:41.613Z,6.30
2022-09-21T03:50:10.257Z,5.90
2022-09-21T03:52:38.461Z,5.80
2022-09-21T03:55:06.581Z,6.40
2022-09-21T03:57:34.389Z,5.90
2022-09-21T04:00:03.621Z,6.23
2022-09-21T04:02:31.934Z,6.50
2022-09-21T04:04:59.607Z,8.20
2022-09-21T04:07:26.604Z,6.57
2022-09-21T04:09:53.960Z,6.30
2022-09-21T04:12:24.011Z,6.00
2022-09-21T04:14:51.087Z,6.03
2022-09-21T04:17:18.139Z,6.60
2022-09-21T04:19:45.422Z,5.87
2022-09-21T04:22:12.700Z,6.13
2022-09-21T04:24:40.892Z,6.17
2022-09-21T04:27:08.583Z,5.57
2022-09-21T04:29:35.845Z,5.80
2022-09-21T04:32:02.961Z,6.13
2022-09-21T04:34:31.136Z,5.87
2022-09-21T04:36:58.648Z,5.83
2022-09-21T04:39:26.302Z,7.18
2022-09-21T04:41:53.320Z,6.33
2022-09-21T04:44:20.442Z,6.27
2022-09-21T04:46:47.424Z,6.20
2022-09-21T04:49:14.436Z,5.90
2022-09-21T04:51:41.537Z,5.93
2022-09-21T04:54:08.551Z,6.13
2022-09-21T04:56:35.842Z,6.20
2022-09-21T04:59:02.850Z,5.53
2022-09-21T05:01:29.927Z,5.90
2022-09-21T05:04:01.721Z,5.63
2022-09-21T05:06:29.833Z,6.40
2022-09-21T05:09:15.589Z,6.63
2022-09-21T05:11:42.599Z,6.27
2022-09-21T05:14:09.772Z,6.30
2022-09-21T05:16:37.440Z,6.90
2022-09-21T05:19:04.515Z,8.00
2022-09-21T05:21:31.689Z,7.77
2022-09-21T05:23:59.166Z,6.13
2022-09-21T05:26:26.249Z,6.37
2022-09-21T05:28:53.446Z,6.53
2022-09-21T05:31:28.244Z,6.67
2022-09-21T05:33:58.601Z,6.77
2022-09-21T05:36:37.615Z,5.70
2022-09-21T05:39:04.725Z,5.90
2022-09-21T05:41:31.892Z,6.37
2022-09-21T05:43:59.013Z,7.07
2022-09-21T05:46:29.088Z,6.10
2022-09-21T05:49:01.308Z,6.97
2022-09-21T05:51:34.200Z,6.73
2022-09-21T05:54:10.334Z,8.60
2022-09-21T05:56:43.162Z,7.47
2022-09-21T05:59:10.162Z,7.33
2022-09-21T06:01:37.208Z,7.63
2022-09-21T06:04:04.549Z,7.63
2022-09-21T06:06:31.564Z,6.50
2022-09-21T06:08:58.556Z,7.33
2022-09-21T06:11:25.538Z,7.57
2022-09-21T06:13:52.496Z,7.40
2022-09-21T06:16:19.574Z,7.27
2022-09-21T06:18:46.626Z,8.57
2022-09-21T06:21:13.730Z,8.53
2022-09-21T06:23:40.689Z,8.33
2022-09-21T06:26:07.696Z,7.97
2022-09-21T06:28:34.738Z,9.17
2022-09-21T06:31:01.757Z,10.10
2022-09-21T06:33:28.861Z,11.88
2022-09-21T06:35:59.890Z,10.07
2022-09-21T06:38:28.024Z,10.00
2022-09-21T06:40:55.363Z,9.57
2022-09-21T06:43:22.430Z,9.83
2022-09-21T06:45:59.742Z,9.90
2022-09-21T06:48:27.557Z,9.83
2022-09-21T06:51:01.493Z,10.73
2022-09-21T06:53:29.555Z,10.33
2022-09-21T06:56:09.723Z,10.50
2022-09-21T06:58:37.655Z,9.83
2022-09-21T07:01:06.425Z,9.27
2022-09-21T07:03:33.559Z,9.93
2022-09-21T07:06:00.657Z,9.73
2022-09-21T07:11:15.087Z,10.37
2022-09-21T07:13:42.471Z,9.43
2022-09-21T07:16:09.939Z,9.83
2022-09-21T07:18:43.542Z,9.23
2022-09-21T07:21:12.077Z,9.23
2022-09-21T07:23:39.368Z,10.13
2022-09-21T07:26:10.975Z,9.30
2022-09-21T07:28:38.054Z,9.57
2022-09-21T07:31:08.885Z,10.23
2022-09-21T07:33:36.310Z,9.80
2022-09-21T07:36:09.903Z,8.90
2022-09-21T07:38:37.822Z,9.13
2022-09-21T07:41:04.877Z,8.97
2022-09-21T07:43:32.000Z,9.37
2022-09-21T07:45:59.049Z,10.27
2022-09-21T07:48:26.059Z,10.88
2022-09-21T07:50:53.059Z,8.97
2022-09-21T07:53:20.041Z,9.00
2022-09-21T07:55:47.149Z,9.47
2022-09-21T07:58:37.443Z,8.77
2022-09-21T08:01:07.471Z,8.63
2022-09-21T08:03:34.496Z,8.63
2022-09-21T08:06:01.533Z,8.60
2022-09-21T08:08:28.532Z,7.87
2022-09-21T08:10:55.685Z,6.60
2022-09-21T08:13:22.691Z,6.60
2022-09-21T08:15:57.891Z,6.27
2022-09-21T08:18:24.913Z,6.33
2022-09-21T08:20:59.138Z,6.47
2022-09-21T08:23:28.902Z,5.03
2022-09-21T08:26:06.642Z,5.10
2022-09-21T08:28:34.243Z,5.65
2022-09-21T08:31:02.057Z,5.23
2022-09-21T08:33:29.961Z,5.67
2022-09-21T08:35:58.121Z,5.07
2022-09-21T08:38:25.687Z,5.27
2022-09-21T08:40:53.332Z,5.07
2022-09-21T08:43:30.239Z,5.40
2022-09-21T08:45:58.692Z,4.30
2022-09-21T08:48:30.874Z,4.30
2022-09-21T08:51:01.336Z,4.40
2022-09-21T08:53:31.142Z,4.00
2022-09-21T08:55:58.516Z,4.23
2022-09-21T08:58:27.214Z,4.10
2022-09-21T09:01:12.892Z,3.70
2022-09-21T09:03:41.743Z,3.10
2022-09-21T09:06:27.709Z,3.47
2022-09-21T09:09:00.765Z,3.00
2022-09-21T09:11:27.739Z,3.43
2022-09-21T09:14:01.153Z,3.10
2022-09-21T09:16:46.942Z,2.53
2022-09-21T09:19:23.138Z,2.83
2022-09-21T09:21:50.586Z,2.80
2022-09-21T09:24:28.458Z,2.60
2022-09-21T09:27:03.809Z,3.00
2022-09-21T09:29:53.808Z,2.57
2022-09-21T09:32:24.324Z,2.67
2022-09-21T09:34:58.565Z,2.23
2022-09-21T09:37:28.807Z,2.40
2022-09-21T09:39:57.648Z,1.83
2022-09-21T09:42:33.527Z,2.20
2022-09-21T09:45:15.076Z,1.57
2022-09-21T09:47:45.103Z,1.83
2022-09-21T09:50:20.380Z,1.83
2022-09-21T09:52:47.905Z,2.13
2022-09-21T09:55:18.965Z,2.00
2022-09-21T09:57:46.439Z,2.50
2022-09-21T10:00:15.200Z,2.50
2022-09-21T10:02:55.280Z,2.00
2022-09-21T10:05:32.957Z,2.47
2022-09-21T10:08:00.237Z,2.20
2022-09-21T10:10:37.724Z,2.37
2022-09-21T10:13:04.695Z,2.40
2022-09-21T10:15:31.713Z,1.87
2022-09-21T10:18:05.385Z,2.17
2022-09-21T10:20:32.974Z,2.50
2022-09-21T10:23:00.458Z,2.75
2022-09-21T10:25:27.637Z,2.13
2022-09-21T10:27:55.780Z,2.37
2022-09-21T10:30:31.827Z,2.70
2022-09-21T10:32:59.649Z,2.70
2022-09-21T10:35:27.082Z,2.40
2022-09-21T10:38:21.967Z,2.60
2022-09-21T10:40:49.729Z,2.80
2022-09-21T10:43:39.819Z,2.30
2022-09-21T10:46:09.789Z,2.33
2022-09-21T10:48:36.985Z,2.63
2022-09-21T10:51:04.685Z,3.20
2022-09-21T10:53:35.530Z,2.87
2022-09-21T10:56:28.869Z,2.80
2022-09-21T10:59:34.494Z,2.87
2022-09-21T11:02:02.692Z,2.60
2022-09-21T11:04:45.591Z,2.60
2022-09-21T11:07:24.876Z,2.33
2022-09-21T11:10:01.257Z,2.17
2022-09-21T11:12:34.415Z,2.23
2022-09-21T11:15:14.726Z,2.00
2022-09-21T11:17:45.465Z,2.33
2022-09-21T11:20:20.898Z,2.00
2022-09-21T11:22:57.404Z,1.70
2022-09-21T11:25:36.755Z,1.80
2022-09-21T11:28:07.110Z,1.70
2022-09-21T11:30:42.369Z,1.50
2022-09-21T11:33:37.332Z,1.70
2022-09-21T11:36:19.432Z,1.80
2022-09-21T11:38:59.545Z,1.30
2022-09-21T11:41:47.500Z,1.70
2022-09-21T11:44:25.503Z,1.63
2022-09-21T11:47:07.828Z,1.40
2022-09-21T11:49:34.780Z,1.30
2022-09-21T11:52:21.260Z,1.43
2022-09-21T11:54:51.878Z,1.53
2022-09-21T11:57:29.968Z,1.40
2022-09-21T11:59:58.653Z,1.40
2022-09-21T12:02:44.484Z,1.10
2022-09-21T12:05:23.919Z,1.60
2022-09-21T12:07:58.011Z,1.30
2022-09-21T12:10:45.541Z,1.13
2022-09-21T12:13:12.507Z,1.10
2022-09-21T12:15:44.101Z,1.20
2022-09-21T12:18:21.339Z,1.27
2022-09-21T12:20:54.493Z,1.30
2022-09-21T12:23:31.830Z,1.25
2022-09-21T12:25:59.320Z,1.20
2022-09-21T12:28:37.464Z,1.30
2022-09-21T12:31:12.835Z,1.23
2022-09-21T12:33:40.647Z,1.30
2022-09-21T12:36:19.272Z,1.30
2022-09-21T12:38:55.369Z,1.03
2022-09-21T12:41:31.328Z,1.10
2022-09-21T12:44:17.239Z,1.30
2022-09-21T12:46:44.211Z,1.17
2022-09-21T12:49:23.856Z,1.20
2022-09-21T12:51:54.434Z,1.13
2022-09-21T12:54:37.856Z,1.23
2022-09-21T12:57:49.353Z,1.20
2022-09-21T13:00:20.685Z,0.90
2022-09-21T13:03:26.286Z,1.50
2022-09-21T13:06:11.491Z,1.50
2022-09-21T13:08:46.614Z,1.33
2022-09-21T13:11:20.798Z,1.40
2022-09-21T13:13:53.646Z,1.10
2022-09-21T13:16:25.383Z,1.20
2022-09-21T13:19:02.862Z,1.40
2022-09-21T13:21:30.580Z,1.40
2022-09-21T13:23:58.831Z,1.63
2022-09-21T13:26:40.381Z,1.63
2022-09-21T13:29:26.637Z,1.50
2022-09-21T13:31:58.753Z,1.23
2022-09-21T13:34:30.019Z,1.63
2022-09-21T13:37:14.014Z,1.30
2022-09-21T13:40:05.207Z,1.20
2022-09-21T13:42:34.859Z,1.37
2022-09-21T13:45:42.132Z,1.27
2022-09-21T13:48:29.370Z,1.20
2022-09-21T13:50:57.915Z,1.23
2022-09-21T13:53:30.846Z,1.40
2022-09-21T13:56:08.686Z,1.43
2022-09-21T13:58:42.420Z,1.40
2022-09-21T14:01:45.786Z,1.60
2022-09-21T14:04:28.250Z,1.40
2022-09-21T14:06:56.741Z,1.10
2022-09-21T14:09:23.267Z,1.17
2022-09-21T14:11:59.062Z,1.53
2022-09-21T14:14:37.185Z,1.47
2022-09-21T14:17:36.744Z,1.40
2022-09-21T14:20:05.844Z,1.40
2022-09-21T14:22:34.271Z,1.30
2022-09-21T14:25:28.181Z,1.30
2022-09-21T14:28:00.451Z,1.40
2022-09-21T14:30:32.053Z,1.50
2022-09-21T14:33:02.097Z,1.20
2022-09-21T14:35:34.019Z,1.40
2022-09-21T14:38:05.282Z,1.10
2022-09-21T14:40:38.999Z,1.30
2022-09-21T14:43:15.487Z,1.40
2022-09-21T14:46:14.093Z,1.10
2022-09-21T14:48:50.174Z,1.30
2022-09-21T14:51:41.881Z,1.30
2022-09-21T14:54:16.259Z,1.40
2022-09-21T14:57:09.547Z,1.10
2022-09-21T14:59:50.180Z,1.57
2022-09-21T15:02:23.857Z,1.20
2022-09-21T15:05:02.077Z,1.40
2022-09-21T15:07:58.503Z,1.30
2022-09-21T15:11:06.531Z,1.40
2022-09-21T15:13:41.018Z,1.43
2022-09-21T15:16:21.706Z,1.30
2022-09-21T15:18:51.204Z,1.30
2022-09-21T15:21:29.166Z,1.50
2022-09-21T15:23:56.995Z,1.17
2022-09-21T15:26:29.129Z,1.67
2022-09-21T15:29:09.705Z,1.60
2022-09-21T15:31:42.325Z,1.30
2022-09-21T15:34:12.365Z,1.10
2022-09-21T15:36:40.643Z,1.47
2022-09-21T15:39:29.809Z,1.50
2022-09-21T15:42:17.724Z,1.10
2022-09-21T15:44:48.441Z,1.30
2022-09-21T15:47:19.864Z,1.57
2022-09-21T15:49:46.706Z,1.30
2022-09-21T15:52:31.759Z,1.10
2022-09-21T15:55:02.730Z,1.30
2022-09-21T15:57:39.246Z,1.53
2022-09-21T16:00:15.372Z,1.43
2022-09-21T16:02:50.644Z,1.50
2022-09-21T16:05:20.936Z,1.47
2022-09-21T16:07:47.612Z,1.50
2022-09-21T16:10:32.977Z,1.60
2022-09-21T16:13:24.300Z,1.50
2022-09-21T16:16:02.329Z,1.63
2022-09-21T16:18:41.196Z,1.27
2022-09-21T16:21:16.186Z,1.53
2022-09-21T16:23:43.113Z,1.20
2022-09-21T16:26:31.558Z,1.20
2022-09-21T16:29:19.374Z,1.83
2022-09-21T16:31:50.153Z,1.60
2022-09-21T16:34:17.593Z,1.73
2022-09-21T16:36:45.389Z,1.70
2022-09-21T16:39:15.542Z,1.70
2022-09-21T16:41:47.266Z,1.47
2022-09-21T16:44:20.513Z,1.50
2022-09-21T16:46:52.592Z,1.52
2022-09-21T16:49:21.633Z,1.50
2022-09-21T16:51:49.619Z,1.57
2022-09-21T16:54:18.016Z,1.43
2022-09-21T16:56:46.297Z,1.43
2022-09-21T16:59:16.226Z,1.70
2022-09-21T17:01:43.605Z,1.40
2022-09-21T17:04:13.335Z,1.47
2022-09-21T17:06:40.444Z,1.30
2022-09-21T17:09:29.614Z,1.30
2022-09-21T17:11:59.232Z,1.43
2022-09-21T17:14:25.844Z,1.40
2022-09-21T17:16:56.177Z,1.40
2022-09-21T17:19:22.860Z,1.30
2022-09-21T17:21:49.752Z,1.30
2022-09-21T17:24:33.080Z,1.60
2022-09-21T17:27:03.596Z,1.67
2022-09-21T17:29:31.069Z,1.57
2022-09-21T17:31:58.631Z,1.50
2022-09-21T17:34:27.283Z,1.30
2022-09-21T17:36:55.119Z,1.50
2022-09-21T17:39:23.400Z,1.60
2022-09-21T17:41:58.039Z,1.60
2022-09-21T17:44:55.021Z,1.53
2022-09-21T17:47:29.379Z,1.40
2022-09-21T17:50:02.579Z,1.50
2022-09-21T17:52:47.854Z,2.10
2022-09-21T17:55:14.627Z,1.77
2022-09-21T17:57:56.573Z,1.60
2022-09-21T18:00:25.007Z,1.40
2022-09-21T18:02:53.775Z,1.50
2022-09-21T18:05:24.397Z,1.50
2022-09-21T18:07:51.903Z,1.73
2022-09-21T18:10:22.856Z,1.40
2022-09-21T18:12:52.916Z,1.73
2022-09-21T18:15:27.340Z,1.60
2022-09-21T18:18:13.710Z,1.50
2022-09-21T18:21:04.466Z,1.30
2022-09-21T18:23:49.964Z,1.50
2022-09-21T18:26:17.513Z,1.63
2022-09-21T18:28:46.505Z,1.43
2022-09-21T18:31:42.818Z,1.90
2022-09-21T18:34:24.650Z,2.10
2022-09-21T18:37:04.536Z,2.00
2022-09-21T18:39:54.506Z,3.53
2022-09-21T18:42:39.413Z,6.57
2022-09-21T18:45:15.755Z,7.10
2022-09-21T18:47:51.012Z,7.57
2022-09-21T18:51:02.308Z,4.93
2022-09-21T18:53:41.142Z,4.03
2022-09-21T18:56:08.425Z,3.37
2022-09-21T18:58:35.931Z,3.10
2022-09-21T19:01:04.006Z,2.60
2022-09-21T19:03:31.134Z,2.47
2022-09-21T19:06:19.301Z,2.30
2022-09-21T19:09:17.865Z,2.33
2022-09-21T19:11:56.882Z,2.40
2022-09-21T19:14:56.155Z,2.53
2022-09-21T19:17:55.983Z,2.87
2022-09-21T19:20:49.700Z,2.60
2022-09-21T19:23:39.353Z,3.25
2022-09-21T19:26:29.502Z,3.07
2022-09-21T19:29:15.841Z,2.57
2022-09-21T19:31:44.018Z,2.80
2022-09-21T19:34:15.104Z,2.50
2022-09-21T19:36:43.286Z,3.40
2022-09-21T19:39:14.654Z,11.20
2022-09-21T19:42:02.054Z,2.37
2022-09-21T19:44:39.346Z,2.20
2022-09-21T19:47:25.881Z,2.13
2022-09-21T19:49:55.049Z,2.30
2022-09-21T19:52:36.223Z,2.13
2022-09-21T19:55:23.362Z,1.90
2022-09-21T19:58:08.918Z,2.40
2022-09-21T20:00:37.384Z,2.63
2022-09-21T20:03:21.633Z,2.67
2022-09-21T20:06:29.303Z,4.20
2022-09-21T20:09:03.067Z,4.13
2022-09-21T20:11:46.023Z,4.70
2022-09-21T20:14:22.697Z,4.23
2022-09-21T20:16:56.841Z,5.77
2022-09-21T20:19:26.544Z,5.07
2022-09-21T20:22:04.162Z,4.63
2022-09-21T20:24:46.466Z,5.20
2022-09-21T20:27:35.017Z,4.60
2022-09-21T20:30:05.750Z,5.27
2022-09-21T20:32:36.701Z,4.70
2022-09-21T20:35:07.212Z,4.53
2022-09-21T20:37:37.795Z,4.90
2022-09-21T20:40:13.178Z,5.55
2022-09-21T20:42:46.250Z,5.23
2022-09-21T20:45:19.310Z,4.57
2022-09-21T20:47:54.666Z,5.13
2022-09-21T20:50:31.711Z,5.20
2022-09-21T20:53:03.907Z,4.63
2022-09-21T20:55:36.123Z,4.27
2022-09-21T20:58:08.348Z,4.70
2022-09-21T21:00:40.558Z,4.00
2022-09-21T21:03:09.545Z,4.37
2022-09-21T21:05:36.553Z,3.87
2022-09-21T21:08:04.506Z,3.90
2022-09-21T21:10:31.801Z,3.70
2022-09-21T21:12:59.503Z,4.50
2022-09-21T21:15:26.474Z,4.40
2022-09-21T21:17:53.544Z,3.67
2022-09-21T21:20:21.674Z,3.63
2022-09-21T21:22:49.590Z,3.60
2022-09-21T21:25:16.869Z,3.27
2022-09-21T21:27:43.923Z,3.47
2022-09-21T21:30:11.972Z,3.87
2022-09-21T21:32:38.938Z,3.90
2022-09-21T21:35:06.298Z,4.17
2022-09-21T21:37:33.323Z,4.20
2022-09-21T21:40:00.476Z,4.90
2022-09-21T21:42:29.514Z,3.93
2022-09-21T21:44:56.737Z,3.80
2022-09-21T21:47:40.557Z,3.70
2022-09-21T21:50:08.503Z,3.80
2022-09-21T21:52:35.482Z,3.40
2022-09-21T21:55:02.588Z,3.90
2022-09-21T21:57:29.616Z,3.57
2022-09-21T21:59:56.652Z,3.47
2022-09-21T22:02:24.139Z,3.10
2022-09-21T22:04:51.188Z,4.10
2022-09-21T22:07:18.185Z,3.80
2022-09-21T22:09:45.162Z,3.50
2022-09-21T22:12:12.210Z,3.47
2022-09-21T22:14:39.540Z,3.23
2022-09-21T22:17:06.630Z,3.23
2022-09-21T22:19:33.651Z,3.43
2022-09-21T22:22:00.652Z,3.10
2022-09-21T22:24:27.657Z,3.57
2022-09-21T22:26:54.649Z,3.20
2022-09-21T22:29:21.618Z,3.30
2022-09-21T22:31:49.624Z,3.43
2022-09-21T22:34:16.775Z,3.17
2022-09-21T22:36:44.139Z,3.37
2022-09-21T22:39:11.612Z,3.10
2022-09-21T22:41:39.749Z,3.00
2022-09-21T22:44:06.823Z,2.90
2022-09-21T22:46:33.852Z,3.33
2022-09-21T22:49:00.878Z,3.63
2022-09-21T22:51:28.223Z,4.00
2022-09-21T22:53:55.250Z,3.23
2022-09-21T22:56:23.521Z,3.23
2022-09-21T22:58:51.590Z,3.53
2022-09-21T23:01:19.961Z,3.90
2022-09-21T23:03:51.923Z,3.70
2022-09-21T23:06:20.046Z,3.83
2022-09-21T23:08:50.685Z,4.00
2022-09-21T23:11:20.294Z,3.60
2022-09-21T23:13:47.298Z,3.20
2022-09-21T23:16:15.477Z,3.13
2022-09-21T23:18:43.065Z,3.37
2022-09-21T23:21:14.495Z,3.80
2022-09-21T23:23:42.499Z,3.30
2022-09-21T23:26:14.048Z,3.57
2022-09-21T23:28:41.886Z,3.77
2022-09-21T23:31:09.919Z,4.07
2022-09-21T23:33:40.746Z,3.70
2022-09-21T23:36:08.852Z,3.90
2022-09-21T23:38:36.190Z,3.80
2022-09-21T23:41:13.525Z,3.70
2022-09-21T23:43:41.528Z,4.43
2022-09-21T23:46:09.354Z,4.20
2022-09-21T23:48:36.350Z,4.00
2022-09-21T23:51:03.906Z,4.10
2022-09-21T23:53:31.552Z,4.33
2022-09-21T23:55:59.099Z,5.07
2022-09-21T23:58:26.673Z,4.97
